createdAt,value
2022-12-14T00:01:22.196Z,-0.79
2022-12-14T00:03:48.922Z,-0.78
2022-12-14T00:06:17.058Z,-0.75
2022-12-14T00:08:44.366Z,-0.78
2022-12-14T00:11:11.246Z,-0.76
2022-12-14T00:13:38.291Z,-0.74
2022-12-14T00:16:14.339Z,-0.70
2022-12-14T00:18:41.114Z,-0.69
2022-12-14T00:21:10.872Z,-0.72
2022-12-14T00:23:39.328Z,-0.71
2022-12-14T00:26:21.146Z,-0.71
2022-12-14T00:28:49.250Z,-0.70
2022-12-14T00:31:16.127Z,-0.78
2022-12-14T00:33:42.506Z,-0.89
2022-12-14T00:36:11.180Z,-0.97
2022-12-14T00:38:38.333Z,-1.01
2022-12-14T00:41:05.505Z,-0.98
2022-12-14T00:43:32.012Z,-0.95
2022-12-14T00:45:58.504Z,-0.94
2022-12-14T00:48:26.277Z,-0.93
2022-12-14T00:50:54.835Z,-0.97
2022-12-14T00:53:22.333Z,-0.94
2022-12-14T00:55:49.863Z,-0.95
2022-12-14T00:58:20.981Z,-0.92
2022-12-14T01:00:48.350Z,-0.92
2022-12-14T01:03:15.419Z,-0.93
2022-12-14T01:05:41.909Z,-0.93
2022-12-14T01:08:15.858Z,-0.96
2022-12-14T01:10:42.290Z,-1.00
2022-12-14T01:13:10.959Z,-0.99
2022-12-14T01:15:37.431Z,-0.95
2022-12-14T01:18:03.920Z,-0.93
2022-12-14T01:20:30.723Z,-0.91
2022-12-14T01:22:57.298Z,-0.91
2022-12-14T01:25:23.900Z,-0.91
2022-12-14T01:27:50.404Z,-0.89
2022-12-14T01:30:19.164Z,-0.85
2022-12-14T01:32:46.074Z,-0.83
2022-12-14T01:35:12.612Z,-0.83
2022-12-14T01:37:38.996Z,-0.85
2022-12-14T01:40:05.985Z,-0.87
2022-12-14T01:42:35.336Z,-0.89
2022-12-14T01:45:01.871Z,-0.93
2022-12-14T01:47:38.165Z,-0.96
2022-12-14T01:50:13.212Z,-1.02
2022-12-14T01:52:40.972Z,-1.00
2022-12-14T01:55:13.424Z,-0.96
2022-12-14T01:58:00.119Z,-0.92
2022-12-14T02:00:26.514Z,-0.92
2022-12-14T02:03:09.231Z,-0.93
2022-12-14T02:05:41.469Z,-0.95
2022-12-14T02:08:09.157Z,-0.96
2022-12-14T02:10:36.214Z,-1.00
2022-12-14T02:13:14.773Z,-1.01
2022-12-14T02:15:42.201Z,-1.02
2022-12-14T02:18:14.212Z,-1.03
2022-12-14T02:20:49.842Z,-1.00
2022-12-14T02:23:49.186Z,-0.98
2022-12-14T02:26:44.418Z,-0.99
2022-12-14T02:29:27.254Z,-1.00
2022-12-14T02:32:15.256Z,-1.01
2022-12-14T02:34:58.024Z,-1.02
2022-12-14T02:37:59.705Z,-1.02
2022-12-14T02:40:44.938Z,-1.05
2022-12-14T02:43:41.852Z,-1.04
2022-12-14T02:46:29.443Z,-1.03
2022-12-14T02:49:05.085Z,-1.02
2022-12-14T02:52:00.090Z,-1.02
2022-12-14T02:55:00.482Z,-1.02
2022-12-14T02:57:32.568Z,-1.02
2022-12-14T03:00:02.754Z,-1.03
2022-12-14T03:02:30.613Z,-1.03
2022-12-14T03:04:58.695Z,-1.03
2022-12-14T03:07:44.392Z,-1.04
2022-12-14T03:10:38.967Z,-1.04
2022-12-14T03:13:17.663Z,-1.05
2022-12-14T03:15:48.415Z,-1.07
2022-12-14T03:18:18.919Z,-1.09
2022-12-14T03:20:50.560Z,-1.12
2022-12-14T03:23:26.797Z,-1.12
2022-12-14T03:26:05.203Z,-1.13
2022-12-14T03:28:39.614Z,-1.14
2022-12-14T03:31:12.572Z,-1.16
2022-12-14T03:33:42.861Z,-1.17
2022-12-14T03:36:16.867Z,-1.16
2022-12-14T03:38:49.149Z,-1.17
2022-12-14T03:41:21.324Z,-1.13
2022-12-14T03:44:04.190Z,-1.14
2022-12-14T03:46:52.499Z,-1.15
2022-12-14T03:49:28.054Z,-1.15
2022-12-14T03:52:15.224Z,-1.20
2022-12-14T03:55:05.387Z,-1.22
2022-12-14T03:57:54.796Z,-1.22
2022-12-14T04:00:24.304Z,-1.21
2022-12-14T04:03:05.598Z,-1.20
2022-12-14T04:05:48.737Z,-1.21
2022-12-14T04:08:18.618Z,-1.23
2022-12-14T04:11:08.216Z,-1.23
2022-12-14T04:14:21.521Z,-1.22
2022-12-14T04:17:10.487Z,-1.24
2022-12-14T04:19:54.676Z,-1.27
2022-12-14T04:22:25.932Z,-1.28
2022-12-14T04:25:22.370Z,-1.31
2022-12-14T04:28:33.408Z,-1.31
2022-12-14T04:31:04.890Z,-1.37
2022-12-14T04:33:47.873Z,-1.39
2022-12-14T04:36:22.017Z,-1.42
2022-12-14T04:38:54.837Z,-1.43
2022-12-14T04:41:26.562Z,-1.44
2022-12-14T04:43:57.336Z,-1.45
2022-12-14T04:46:30.806Z,-1.48
2022-12-14T04:49:16.325Z,-1.49
2022-12-14T04:51:59.322Z,-1.50
2022-12-14T04:54:38.234Z,-1.53
2022-12-14T04:57:15.864Z,-1.57
2022-12-14T04:59:45.494Z,-1.57
2022-12-14T05:02:38.894Z,-1.59
2022-12-14T05:05:29.391Z,-1.59
2022-12-14T05:08:25.091Z,-1.60
2022-12-14T05:11:30.471Z,-1.61
2022-12-14T05:13:55.864Z,-1.64
2022-12-14T05:16:24.248Z,-1.67
2022-12-14T05:18:50.778Z,-1.70
2022-12-14T05:21:55.620Z,-1.70
2022-12-14T05:24:22.019Z,-1.72
2022-12-14T05:26:48.414Z,-1.76
2022-12-14T05:29:15.109Z,-1.77
2022-12-14T05:31:41.581Z,-1.75
2022-12-14T05:34:08.004Z,-1.76
2022-12-14T05:36:35.405Z,-1.77
2022-12-14T05:39:01.852Z,-1.77
2022-12-14T05:41:28.272Z,-1.79
2022-12-14T05:43:54.697Z,-1.80
2022-12-14T05:46:21.315Z,-1.82
2022-12-14T05:48:49.567Z,-1.85
2022-12-14T05:51:16.407Z,-1.88
2022-12-14T05:53:42.863Z,-1.92
2022-12-14T05:56:10.359Z,-1.95
2022-12-14T05:58:36.792Z,-1.98
2022-12-14T06:01:05.872Z,-2.00
2022-12-14T06:03:33.103Z,-2.00
2022-12-14T06:06:08.597Z,-2.00
2022-12-14T06:08:38.237Z,-2.03
2022-12-14T06:11:10.060Z,-2.05
2022-12-14T06:13:37.738Z,-2.07
2022-12-14T06:16:19.813Z,-2.08
2022-12-14T06:18:51.334Z,-2.10
2022-12-14T06:21:19.820Z,-2.14
2022-12-14T06:23:46.617Z,-2.15
2022-12-14T06:26:14.391Z,-2.13
2022-12-14T06:28:40.916Z,-2.20
2022-12-14T06:31:11.856Z,-2.13
2022-12-14T06:33:38.366Z,-2.12
2022-12-14T06:36:05.046Z,-2.16
2022-12-14T06:38:31.454Z,-2.17
2022-12-14T06:40:57.821Z,-2.22
2022-12-14T06:43:25.984Z,-2.25
2022-12-14T06:45:53.033Z,-2.25
2022-12-14T06:48:19.459Z,-2.25
2022-12-14T06:50:45.883Z,-2.24
2022-12-14T06:53:15.034Z,-2.22
2022-12-14T06:55:41.456Z,-2.25
2022-12-14T06:58:12.644Z,-2.26
2022-12-14T07:00:39.188Z,-2.27
2022-12-14T07:03:05.712Z,-2.29
2022-12-14T07:05:32.263Z,-2.29
2022-12-14T07:07:58.739Z,-2.31
2022-12-14T07:10:25.148Z,-2.32
2022-12-14T07:12:51.623Z,-2.34
2022-12-14T07:15:18.081Z,-2.34
2022-12-14T07:17:44.465Z,-2.32
2022-12-14T07:20:11.215Z,-2.26
2022-12-14T07:22:38.776Z,-2.22
2022-12-14T07:25:05.688Z,-2.19
2022-12-14T07:27:32.049Z,-2.12
2022-12-14T07:29:58.429Z,-2.09
2022-12-14T07:32:24.820Z,-2.08
2022-12-14T07:34:51.225Z,-2.09
2022-12-14T07:37:17.691Z,-2.08
2022-12-14T07:39:44.108Z,-2.08
2022-12-14T07:42:10.498Z,-2.10
2022-12-14T07:44:36.943Z,-2.14
2022-12-14T07:47:03.638Z,-2.15
2022-12-14T07:49:30.066Z,-2.18
2022-12-14T07:51:56.465Z,-1.93
2022-12-14T07:54:23.264Z,-1.87
2022-12-14T07:56:50.788Z,-1.91
2022-12-14T07:59:17.455Z,-1.94
2022-12-14T08:01:44.636Z,-2.01
2022-12-14T08:04:14.463Z,-1.73
2022-12-14T08:06:41.836Z,-1.81
2022-12-14T08:09:10.699Z,-1.95
2022-12-14T08:11:37.967Z,-2.04
2022-12-14T08:14:07.528Z,-2.10
2022-12-14T08:16:34.655Z,-2.17
2022-12-14T08:19:01.363Z,-2.20
2022-12-14T08:21:28.779Z,-2.22
2022-12-14T08:23:57.043Z,-2.26
2022-12-14T08:26:30.059Z,-2.28
2022-12-14T08:28:59.899Z,-2.30
2022-12-14T08:31:28.086Z,-2.32
2022-12-14T08:33:55.310Z,-2.31
2022-12-14T08:36:29.874Z,-2.31
2022-12-14T08:39:08.112Z,-2.29
2022-12-14T08:41:35.223Z,-2.24
2022-12-14T08:44:03.212Z,-2.18
2022-12-14T08:46:34.709Z,-2.11
2022-12-14T08:49:01.444Z,-2.07
2022-12-14T08:51:28.823Z,-2.02
2022-12-14T08:53:55.505Z,-1.95
2022-12-14T08:56:25.451Z,-1.86
2022-12-14T08:58:52.551Z,-1.82
2022-12-14T09:01:23.824Z,-1.76
2022-12-14T09:03:54.724Z,-1.72
2022-12-14T09:06:28.778Z,-1.68
2022-12-14T09:08:55.529Z,-1.63
2022-12-14T09:11:22.514Z,-1.59
2022-12-14T09:13:52.868Z,-1.53
2022-12-14T09:16:20.904Z,-1.44
2022-12-14T09:18:49.109Z,-1.37
2022-12-14T09:21:16.085Z,-1.30
2022-12-14T09:23:42.618Z,-1.23
2022-12-14T09:26:16.585Z,-1.14
2022-12-14T09:28:47.097Z,-1.06
2022-12-14T09:31:15.300Z,-1.02
2022-12-14T09:33:41.791Z,-0.95
2022-12-14T09:36:13.713Z,-0.91
2022-12-14T09:38:48.731Z,-0.84
2022-12-14T09:41:50.742Z,-0.74
2022-12-14T09:44:26.815Z,-0.62
2022-12-14T09:47:06.578Z,-0.52
2022-12-14T09:49:54.239Z,-0.47
2022-12-14T09:52:29.560Z,-0.43
2022-12-14T09:54:57.952Z,-0.38
2022-12-14T09:57:30.724Z,-0.33
2022-12-14T09:59:57.179Z,-0.31
2022-12-14T10:03:22.319Z,-0.28
2022-12-14T10:05:58.925Z,-0.23
2022-12-14T10:08:31.911Z,-0.18
2022-12-14T10:11:16.177Z,-0.17
2022-12-14T10:14:19.632Z,-0.14
2022-12-14T10:17:07.000Z,-0.12
2022-12-14T10:19:57.059Z,-0.07
2022-12-14T10:22:32.521Z,-0.02
2022-12-14T10:25:18.428Z,0.04
2022-12-14T10:28:10.370Z,0.03
2022-12-14T10:30:37.715Z,0.03
2022-12-14T10:33:29.901Z,0.07
2022-12-14T10:36:19.219Z,0.08
2022-12-14T10:38:56.634Z,0.04
2022-12-14T10:41:41.740Z,0.07
2022-12-14T10:44:24.960Z,0.01
2022-12-14T10:46:56.788Z,0.00
2022-12-14T10:49:59.250Z,0.07
2022-12-14T10:52:33.939Z,0.10
2022-12-14T10:55:04.596Z,0.08
2022-12-14T10:57:31.013Z,0.09
2022-12-14T11:00:08.485Z,0.07
2022-12-14T11:02:43.679Z,0.02
2022-12-14T11:05:24.616Z,-0.02
2022-12-14T11:07:51.182Z,-0.01
2022-12-14T11:10:29.346Z,0.05
2022-12-14T11:13:05.764Z,0.06
2022-12-14T11:15:41.959Z,0.05
2022-12-14T11:18:17.460Z,0.09
2022-12-14T11:20:56.452Z,0.12
2022-12-14T11:23:35.775Z,0.12
2022-12-14T11:26:31.733Z,0.11
2022-12-14T11:29:00.812Z,0.08
2022-12-14T11:31:34.628Z,0.08
2022-12-14T11:34:03.820Z,0.15
2022-12-14T11:36:36.120Z,0.25
2022-12-14T11:39:23.672Z,0.35
2022-12-14T11:42:00.901Z,0.41
2022-12-14T11:44:30.927Z,0.46
2022-12-14T11:46:57.363Z,0.48
2022-12-14T11:49:25.820Z,0.53
2022-12-14T11:52:09.832Z,0.59
2022-12-14T11:54:49.876Z,0.57
2022-12-14T11:57:54.566Z,0.58
2022-12-14T12:00:28.434Z,0.58
2022-12-14T12:03:01.835Z,0.58
2022-12-14T12:05:32.835Z,0.63
2022-12-14T12:08:00.844Z,0.66
2022-12-14T12:10:41.734Z,0.67
2022-12-14T12:13:21.886Z,0.64
2022-12-14T12:15:52.193Z,0.60
2022-12-14T12:18:40.369Z,0.55
2022-12-14T12:21:22.489Z,0.54
2022-12-14T12:24:17.061Z,0.58
2022-12-14T12:26:49.767Z,0.63
2022-12-14T12:29:23.119Z,0.67
2022-12-14T12:32:00.771Z,0.74
2022-12-14T12:35:14.965Z,0.82
2022-12-14T12:37:52.869Z,0.84
2022-12-14T12:40:26.731Z,0.92
2022-12-14T12:43:02.882Z,1.07
2022-12-14T12:45:45.658Z,2.44
2022-12-14T12:48:30.446Z,2.72
2022-12-14T12:51:02.451Z,2.48
2022-12-14T12:53:39.878Z,2.25
2022-12-14T12:56:28.983Z,2.01
2022-12-14T12:58:56.481Z,1.87
2022-12-14T13:01:34.126Z,1.76
2022-12-14T13:04:06.892Z,1.68
2022-12-14T13:06:45.263Z,1.64
2022-12-14T13:09:19.151Z,1.63
2022-12-14T13:11:46.513Z,1.65
2022-12-14T13:14:41.205Z,1.65
2022-12-14T13:17:23.266Z,1.60
2022-12-14T13:19:54.169Z,1.58
2022-12-14T13:22:30.453Z,1.55
2022-12-14T13:25:02.430Z,1.47
2022-12-14T13:27:46.889Z,1.44
2022-12-14T13:30:43.061Z,1.40
2022-12-14T13:33:37.313Z,1.35
2022-12-14T13:36:25.261Z,1.29
2022-12-14T13:39:32.989Z,1.22
2022-12-14T13:42:03.404Z,1.16
2022-12-14T13:44:44.853Z,1.14
2022-12-14T13:47:19.183Z,1.11
2022-12-14T13:50:26.304Z,1.08
2022-12-14T13:52:46.587Z,1.10
2022-12-14T13:55:49.655Z,1.08
2022-12-14T13:58:21.114Z,1.06
2022-12-14T14:01:00.097Z,1.10
2022-12-14T14:03:32.596Z,1.08
2022-12-14T14:06:12.419Z,1.08
2022-12-14T14:08:42.241Z,1.08
2022-12-14T14:11:36.461Z,1.11
2022-12-14T14:14:18.451Z,1.08
2022-12-14T14:16:50.339Z,1.10
2022-12-14T14:19:24.186Z,1.07
2022-12-14T14:22:26.083Z,1.06
2022-12-14T14:24:57.216Z,1.07
2022-12-14T14:27:35.248Z,1.06
2022-12-14T14:30:02.599Z,1.03
2022-12-14T14:32:42.144Z,0.99
2022-12-14T14:35:23.731Z,0.96
2022-12-14T14:38:22.928Z,0.93
2022-12-14T14:41:15.465Z,0.93
2022-12-14T14:43:46.675Z,0.90
2022-12-14T14:46:22.179Z,0.91
2022-12-14T14:48:54.878Z,0.90
2022-12-14T14:51:26.411Z,0.88
2022-12-14T14:57:35.266Z,0.83
2022-12-14T15:00:03.007Z,0.81
2022-12-14T15:02:32.098Z,0.81
2022-12-14T15:05:17.436Z,0.79
2022-12-14T15:07:47.161Z,0.75
2022-12-14T15:10:22.675Z,0.72
2022-12-14T15:12:52.930Z,0.67
2022-12-14T15:15:24.066Z,0.66
2022-12-14T15:17:50.658Z,0.64
2022-12-14T15:20:28.707Z,0.63
2022-12-14T15:22:56.157Z,0.61
2022-12-14T15:25:25.984Z,0.60
2022-12-14T15:27:53.636Z,0.56
2022-12-14T15:30:26.546Z,0.56
2022-12-14T15:33:02.630Z,0.55
2022-12-14T15:35:36.309Z,0.52
2022-12-14T15:38:06.197Z,0.49
2022-12-14T15:40:35.201Z,0.47
2022-12-14T15:43:15.810Z,0.44
2022-12-14T15:45:44.412Z,0.42
2022-12-14T15:48:25.783Z,0.38
2022-12-14T15:50:55.584Z,0.34
2022-12-14T15:53:39.306Z,0.30
2022-12-14T15:56:36.757Z,0.25
2022-12-14T15:59:14.672Z,0.21
2022-12-14T16:01:47.381Z,0.16
2022-12-14T16:04:20.992Z,0.12
2022-12-14T16:06:52.916Z,0.09
2022-12-14T16:09:28.656Z,0.07
2022-12-14T16:11:58.354Z,0.05
2022-12-14T16:15:00.758Z,0.03
2022-12-14T16:17:33.738Z,0.03
2022-12-14T16:20:03.866Z,0.02
2022-12-14T16:22:32.340Z,0.01
2022-12-14T16:25:16.753Z,0.00
2022-12-14T16:27:46.917Z,-0.02
2022-12-14T16:30:27.670Z,-0.03
2022-12-14T16:33:24.365Z,-0.07
2022-12-14T16:36:07.157Z,-0.09
2022-12-14T16:38:40.231Z,-0.11
2022-12-14T16:41:07.929Z,-0.12
2022-12-14T16:43:41.718Z,-0.12
2022-12-14T16:46:12.489Z,-0.15
2022-12-14T16:48:43.302Z,-0.17
2022-12-14T16:51:32.683Z,-0.21
2022-12-14T16:54:38.719Z,-0.27
2022-12-14T16:57:16.463Z,-0.30
2022-12-14T16:59:45.708Z,-0.31
2022-12-14T17:02:35.714Z,-0.33
2022-12-14T17:05:11.975Z,-0.36
2022-12-14T17:07:38.664Z,-0.38
2022-12-14T17:10:14.672Z,-0.36
2022-12-14T17:12:41.077Z,-0.29
2022-12-14T17:15:07.704Z,-0.25
2022-12-14T17:17:36.172Z,-0.27
2022-12-14T17:20:07.895Z,-0.30
2022-12-14T17:22:37.199Z,-0.31
2022-12-14T17:25:04.016Z,-0.33
2022-12-14T17:27:30.478Z,-0.33
2022-12-14T17:29:57.306Z,-0.33
2022-12-14T17:32:27.903Z,-0.34
2022-12-14T17:34:54.540Z,-0.33
2022-12-14T17:37:22.900Z,-0.33
2022-12-14T17:39:50.367Z,-0.36
2022-12-14T17:42:20.384Z,-0.34
2022-12-14T17:44:54.149Z,-0.34
2022-12-14T17:47:20.754Z,-0.32
2022-12-14T17:49:47.151Z,-0.33
2022-12-14T17:52:32.317Z,-0.34
2022-12-14T17:54:59.399Z,-0.37
2022-12-14T17:57:26.642Z,-0.37
2022-12-14T18:00:13.069Z,-0.42
2022-12-14T18:02:40.716Z,-0.42
2022-12-14T18:05:17.791Z,-0.43
2022-12-14T18:07:44.167Z,-0.45
2022-12-14T18:10:14.138Z,-0.45
2022-12-14T18:12:41.524Z,-0.46
2022-12-14T18:15:28.937Z,-0.33
2022-12-14T18:17:55.629Z,-0.32
2022-12-14T18:20:23.757Z,-0.34
2022-12-14T18:22:51.048Z,-0.39
2022-12-14T18:25:40.757Z,-0.40
2022-12-14T18:28:07.953Z,-0.42
2022-12-14T18:30:41.769Z,-0.44
2022-12-14T18:33:17.880Z,-0.49
2022-12-14T18:35:45.232Z,-0.50
2022-12-14T18:38:12.272Z,-0.53
2022-12-14T18:40:39.932Z,-0.34
2022-12-14T18:43:06.371Z,-0.35
2022-12-14T18:45:34.566Z,-0.39
2022-12-14T18:48:01.686Z,-0.45
2022-12-14T18:50:29.280Z,-0.48
2022-12-14T18:52:55.915Z,-0.50
2022-12-14T18:55:26.107Z,-0.50
2022-12-14T18:57:55.038Z,-0.50
2022-12-14T19:00:24.185Z,-0.53
2022-12-14T19:02:50.903Z,-0.55
2022-12-14T19:05:24.248Z,-0.51
2022-12-14T19:07:52.416Z,-0.49
2022-12-14T19:10:21.973Z,-0.48
2022-12-14T19:12:50.268Z,-0.46
2022-12-14T19:15:22.670Z,-0.42
2022-12-14T19:17:49.401Z,-0.40
2022-12-14T19:20:17.133Z,-0.38
2022-12-14T19:22:44.667Z,-0.37
2022-12-14T19:25:12.361Z,-0.38
2022-12-14T19:28:15.439Z,-0.40
2022-12-14T19:30:27.112Z,-0.40
2022-12-14T19:32:55.709Z,-0.39
2022-12-14T19:35:23.233Z,-0.39
2022-12-14T19:37:50.309Z,-0.39
2022-12-14T19:40:17.226Z,-0.37
2022-12-14T19:42:45.259Z,-0.35
2022-12-14T19:45:12.939Z,-0.34
2022-12-14T19:47:39.410Z,-0.34
2022-12-14T19:50:07.365Z,-0.34
2022-12-14T19:52:34.300Z,-0.33
2022-12-14T19:55:01.736Z,-0.31
2022-12-14T19:57:28.350Z,-0.31
2022-12-14T19:59:54.740Z,-0.32
2022-12-14T20:02:21.231Z,-0.33
2022-12-14T20:04:47.696Z,-0.32
2022-12-14T20:07:14.358Z,-0.31
2022-12-14T20:09:40.783Z,-0.32
2022-12-14T20:12:10.839Z,-0.29
2022-12-14T20:14:40.283Z,-0.29
2022-12-14T20:17:11.122Z,-0.28
2022-12-14T20:19:39.071Z,-0.31
2022-12-14T20:22:06.386Z,-0.32
2022-12-14T20:24:32.736Z,-0.32
2022-12-14T20:26:59.341Z,-0.31
2022-12-14T20:29:25.793Z,-0.32
2022-12-14T20:31:52.391Z,-0.30
2022-12-14T20:34:20.038Z,-0.30
2022-12-14T20:36:46.639Z,-0.27
2022-12-14T20:39:13.167Z,-0.26
2022-12-14T20:41:39.643Z,-0.22
2022-12-14T20:44:11.934Z,-0.17
2022-12-14T20:46:42.276Z,-0.17
2022-12-14T20:49:20.464Z,-0.15
2022-12-14T20:51:49.048Z,-0.16
2022-12-14T20:54:18.870Z,-0.18
2022-12-14T20:56:49.478Z,-0.20
2022-12-14T20:59:16.673Z,-0.21
2022-12-14T21:01:43.407Z,-0.24
2022-12-14T21:04:10.185Z,-0.24
2022-12-14T21:06:39.413Z,-0.26
2022-12-14T21:09:10.034Z,-0.28
2022-12-14T21:12:09.203Z,-0.30
2022-12-14T21:14:42.529Z,-0.33
2022-12-14T21:17:09.944Z,-0.37
2022-12-14T21:19:36.926Z,-0.40
2022-12-14T21:22:04.882Z,-0.42
2022-12-14T21:25:01.115Z,-0.46
2022-12-14T21:27:23.447Z,-0.46
2022-12-14T21:29:50.674Z,-0.45
2022-12-14T21:32:18.518Z,-0.45
2022-12-14T21:34:45.987Z,-0.47
2022-12-14T21:37:12.790Z,-0.46
2022-12-14T21:39:39.910Z,-0.47
2022-12-14T21:42:15.592Z,-0.48
2022-12-14T21:44:44.142Z,-0.48
2022-12-14T21:47:13.373Z,-0.52
2022-12-14T21:49:41.891Z,-0.53
2022-12-14T21:52:11.541Z,-0.56
2022-12-14T21:54:39.010Z,-0.58
2022-12-14T21:57:24.329Z,-0.59
2022-12-14T21:59:50.831Z,-0.60
2022-12-14T22:02:21.302Z,-0.59
2022-12-14T22:04:48.282Z,-0.58
2022-12-14T22:07:19.290Z,-0.61
2022-12-14T22:09:49.543Z,-0.62
2022-12-14T22:12:17.486Z,-0.64
2022-12-14T22:14:43.919Z,-0.67
2022-12-14T22:17:11.763Z,-0.68
2022-12-14T22:19:38.296Z,-0.70
2022-12-14T22:22:05.220Z,-0.71
2022-12-14T22:24:32.205Z,-0.72
2022-12-14T22:26:59.343Z,-0.73
2022-12-14T22:29:25.751Z,-0.76
2022-12-14T22:31:52.332Z,-0.78
2022-12-14T22:34:21.707Z,-0.79
2022-12-14T22:36:50.096Z,-0.81
2022-12-14T22:39:17.807Z,-0.83
2022-12-14T22:41:44.818Z,-0.84
2022-12-14T22:44:12.630Z,-0.84
2022-12-14T22:46:40.672Z,-0.86
2022-12-14T22:49:08.535Z,-0.88
2022-12-14T22:51:35.376Z,-0.89
2022-12-14T22:54:02.235Z,-0.89
2022-12-14T22:56:43.545Z,-0.89
2022-12-14T22:59:20.660Z,-0.88
2022-12-14T23:01:49.959Z,-0.86
2022-12-14T23:04:17.165Z,-0.87
2022-12-14T23:06:43.627Z,-0.86
2022-12-14T23:09:28.892Z,-0.88
2022-12-14T23:12:18.261Z,-0.91
2022-12-14T23:15:06.519Z,-0.93
2022-12-14T23:17:51.258Z,-0.95
2022-12-14T23:20:36.036Z,-0.97
2022-12-14T23:23:24.924Z,-0.98
2022-12-14T23:26:09.646Z,-0.98
2022-12-14T23:28:54.434Z,-0.95
2022-12-14T23:31:39.768Z,-0.92
2022-12-14T23:34:24.632Z,-0.91
2022-12-14T23:37:09.321Z,-0.89
2022-12-14T23:39:55.109Z,-0.88
2022-12-14T23:42:40.046Z,-0.88
2022-12-14T23:45:25.377Z,-0.85
2022-12-14T23:48:10.231Z,-0.86
2022-12-14T23:50:54.924Z,-0.88
2022-12-14T23:53:39.789Z,-0.91
2022-12-14T23:56:25.112Z,-0.94
2022-12-14T23:59:13.716Z,-0.96
